Bellville, Georgia
Current Conditions -  °F | °C
As of 8:15 AM on Thursday 27 Nov 2014 (Local Time) from KCWV Reporting Station
Clear Clear  
Wind Chill: 44°   Ceiling: Unl
Heat Index: 48°   Visibility: 10mi
Dew Point: 19°   Wind: 9mph
Humidity: 32%   Direction: 270°W
Pressure: 30.2"   Gusts: 16mph
Location:  32.15°N, 81.97°W
Report Text: KCWV 271315Z AUTO 27008G14KT 10SM CLR 09/M07 A3020 RMK AO2
Loading
Personal Weather Stations






























Interactive Weather Map New forecast layout! Learn more

10-Day Weather Forecast

Advertisements
Track Severe Weather on mobile